sensor_id;sensor_type;location;lat;lon;timestamp;pressure;altitude;pressure_sealevel;temperature;humidity
45357;BME280;31092;51.924;21.448;2024-03-02T00:02:11;99337.09;;;6.05;100.00
45357;BME280;31092;51.924;21.448;2024-03-02T00:04:36;99331.81;;;6.13;100.00
45357;BME280;31092;51.924;21.448;2024-03-02T00:07:02;99265.56;;;5.72;100.00
45357;BME280;31092;51.924;21.448;2024-03-02T00:09:29;99256.06;;;5.70;100.00
45357;BME280;31092;51.924;21.448;2024-03-02T00:11:54;99339.03;;;6.20;100.00
45357;BME280;31092;51.924;21.448;2024-03-02T00:14:20;99340.88;;;6.20;100.00
45357;BME280;31092;51.924;21.448;2024-03-02T00:16:46;99254.31;;;5.61;100.00
45357;BME280;31092;51.924;21.448;2024-03-02T00:19:11;99262.53;;;5.67;100.00
45357;BME280;31092;51.924;21.448;2024-03-02T00:21:37;99251.00;;;5.59;100.00
45357;BME280;31092;51.924;21.448;2024-03-02T00:24:20;99274.06;;;5.68;100.00
45357;BME280;31092;51.924;21.448;2024-03-02T00:26:47;99220.63;;;5.34;100.00
45357;BME280;31092;51.924;21.448;2024-03-02T00:29:16;99338.31;;;6.10;100.00
45357;BME280;31092;51.924;21.448;2024-03-02T00:31:43;99261.31;;;5.62;100.00
45357;BME280;31092;51.924;21.448;2024-03-02T00:34:08;99260.81;;;5.58;100.00
45357;BME280;31092;51.924;21.448;2024-03-02T00:36:36;99333.38;;;5.97;100.00
45357;BME280;31092;51.924;21.448;2024-03-02T00:39:02;99256.78;;;5.54;100.00
45357;BME280;31092;51.924;21.448;2024-03-02T00:41:31;99337.09;;;6.05;100.00
45357;BME280;31092;51.924;21.448;2024-03-02T00:43:58;99336.25;;;6.04;100.00
45357;BME280;31092;51.924;21.448;2024-03-02T00:46:24;99231.88;;;5.45;100.00
45357;BME280;31092;51.924;21.448;2024-03-02T00:48:57;99329.56;;;6.00;100.00
45357;BME280;31092;51.924;21.448;2024-03-02T00:51:26;99325.53;;;5.96;100.00
45357;BME280;31092;51.924;21.448;2024-03-02T00:53:53;99291.13;;;5.75;100.00
45357;BME280;31092;51.924;21.448;2024-03-02T00:56:22;99297.69;;;5.81;100.00
45357;BME280;31092;51.924;21.448;2024-03-02T00:58:48;99230.81;;;5.38;100.00
45357;BME280;31092;51.924;21.448;2024-03-02T01:01:14;99214.75;;;5.30;100.00
45357;BME280;31092;51.924;21.448;2024-03-02T01:03:39;99297.00;;;5.79;100.00
45357;BME280;31092;51.924;21.448;2024-03-02T01:06:06;99264.34;;;5.59;100.00
45357;BME280;31092;51.924;21.448;2024-03-02T01:08:33;99219.94;;;5.32;100.00
45357;BME280;31092;51.924;21.448;2024-03-02T01:10:59;99196.00;;;5.22;100.00
45357;BME280;31092;51.924;21.448;2024-03-02T01:13:24;99186.59;;;5.10;100.00
45357;BME280;31092;51.924;21.448;2024-03-02T01:15:50;99206.84;;;5.20;100.00
45357;BME280;31092;51.924;21.448;2024-03-02T01:18:16;99306.03;;;5.78;100.00
45357;BME280;31092;51.924;21.448;2024-03-02T01:20:41;99272.66;;;5.56;100.00
45357;BME280;31092;51.924;21.448;2024-03-02T01:23:07;99229.09;;;5.29;100.00
45357;BME280;31092;51.924;21.448;2024-03-02T01:25:32;99276.53;;;5.61;100.00
45357;BME280;31092;51.924;21.448;2024-03-02T01:27:58;99243.69;;;5.43;100.00
45357;BME280;31092;51.924;21.448;2024-03-02T01:30:23;99269.69;;;5.59;100.00
45357;BME280;31092;51.924;21.448;2024-03-02T01:32:49;99229.28;;;5.36;100.00
45357;BME280;31092;51.924;21.448;2024-03-02T01:35:14;99296.47;;;5.75;100.00
45357;BME280;31092;51.924;21.448;2024-03-02T01:37:43;99200.81;;;5.18;100.00
45357;BME280;31092;51.924;21.448;2024-03-02T01:40:09;99210.69;;;5.26;100.00
45357;BME280;31092;51.924;21.448;2024-03-02T01:42:39;99192.25;;;5.07;100.00
45357;BME280;31092;51.924;21.448;2024-03-02T01:45:05;99276.84;;;5.58;100.00
45357;BME280;31092;51.924;21.448;2024-03-02T01:47:31;99206.47;;;5.15;100.00
45357;BME280;31092;51.924;21.448;2024-03-02T01:49:58;99267.78;;;5.51;100.00
45357;BME280;31092;51.924;21.448;2024-03-02T01:52:23;99271.97;;;5.53;100.00
45357;BME280;31092;51.924;21.448;2024-03-02T01:54:49;99006.31;;;3.85;100.00
45357;BME280;31092;51.924;21.448;2024-03-02T01:57:15;99235.13;;;5.31;100.00
45357;BME280;31092;51.924;21.448;2024-03-02T01:59:41;99187.03;;;5.05;100.00
45357;BME280;31092;51.924;21.448;2024-03-02T02:02:06;99247.16;;;5.35;100.00
45357;BME280;31092;51.924;21.448;2024-03-02T02:04:32;99276.97;;;5.48;100.00
45357;BME280;31092;51.924;21.448;2024-03-02T02:06:58;99251.66;;;5.35;100.00
45357;BME280;31092;51.924;21.448;2024-03-02T02:09:24;99169.25;;;4.88;100.00
45357;BME280;31092;51.924;21.448;2024-03-02T02:11:50;99169.25;;;4.88;100.00
45357;BME280;31092;51.924;21.448;2024-03-02T02:14:16;99230.34;;;5.17;100.00
45357;BME280;31092;51.924;21.448;2024-03-02T02:16:42;99180.00;;;4.78;100.00
45357;BME280;31092;51.924;21.448;2024-03-02T02:19:08;99260.22;;;5.20;100.00
45357;BME280;31092;51.924;21.448;2024-03-02T02:21:33;99162.44;;;4.67;100.00
45357;BME280;31092;51.924;21.448;2024-03-02T02:23:59;99174.16;;;4.74;100.00
45357;BME280;31092;51.924;21.448;2024-03-02T02:26:24;99231.00;;;5.19;100.00
45357;BME280;31092;51.924;21.448;2024-03-02T02:28:50;99165.63;;;4.71;100.00
45357;BME280;31092;51.924;21.448;2024-03-02T02:31:15;99221.72;;;5.05;100.00
45357;BME280;31092;51.924;21.448;2024-03-02T02:33:42;99212.88;;;5.04;100.00
45357;BME280;31092;51.924;21.448;2024-03-02T02:36:08;99209.25;;;5.06;100.00
45357;BME280;31092;51.924;21.448;2024-03-02T02:38:39;99159.75;;;4.67;100.00
45357;BME280;31092;51.924;21.448;2024-03-02T02:41:05;99194.94;;;4.89;100.00
45357;BME280;31092;51.924;21.448;2024-03-02T02:43:31;99234.94;;;5.07;100.00
45357;BME280;31092;51.924;21.448;2024-03-02T02:45:56;99241.81;;;5.09;100.00
45357;BME280;31092;51.924;21.448;2024-03-02T02:48:22;99139.22;;;4.42;100.00
45357;BME280;31092;51.924;21.448;2024-03-02T02:50:47;99175.59;;;4.69;100.00
45357;BME280;31092;51.924;21.448;2024-03-02T02:53:13;99232.56;;;5.03;100.00
45357;BME280;31092;51.924;21.448;2024-03-02T02:55:39;99215.44;;;4.88;100.00
45357;BME280;31092;51.924;21.448;2024-03-02T02:58:11;99118.34;;;4.37;100.00
45357;BME280;31092;51.924;21.448;2024-03-02T03:00:37;99124.66;;;4.36;100.00
45357;BME280;31092;51.924;21.448;2024-03-02T03:03:03;99222.44;;;4.89;100.00
45357;BME280;31092;51.924;21.448;2024-03-02T03:05:28;99119.56;;;4.25;100.00
45357;BME280;31092;51.924;21.448;2024-03-02T03:07:54;99185.72;;;4.65;100.00
45357;BME280;31092;51.924;21.448;2024-03-02T03:10:19;99220.25;;;4.85;100.00
45357;BME280;31092;51.924;21.448;2024-03-02T03:12:47;99211.81;;;4.71;100.00
45357;BME280;31092;51.924;21.448;2024-03-02T03:15:13;99211.28;;;4.68;100.00
45357;BME280;31092;51.924;21.448;2024-03-02T03:17:39;99132.72;;;4.26;100.00
45357;BME280;31092;51.924;21.448;2024-03-02T03:20:05;99224.06;;;4.82;100.00
45357;BME280;31092;51.924;21.448;2024-03-02T03:22:35;99236.69;;;4.80;100.00
45357;BME280;31092;51.924;21.448;2024-03-02T03:25:00;99176.91;;;4.47;100.00
45357;BME280;31092;51.924;21.448;2024-03-02T03:27:26;99226.19;;;4.78;100.00
45357;BME280;31092;51.924;21.448;2024-03-02T03:29:51;99185.84;;;4.55;100.00
45357;BME280;31092;51.924;21.448;2024-03-02T03:32:17;99142.44;;;4.27;100.00
45357;BME280;31092;51.924;21.448;2024-03-02T03:34:43;99139.28;;;4.32;100.00
45357;BME280;31092;51.924;21.448;2024-03-02T03:37:08;99213.38;;;4.82;100.00
45357;BME280;31092;51.924;21.448;2024-03-02T03:39:35;99231.22;;;4.82;100.00
45357;BME280;31092;51.924;21.448;2024-03-02T03:42:03;99149.50;;;4.37;100.00
45357;BME280;31092;51.924;21.448;2024-03-02T03:44:29;99195.63;;;4.73;100.00
45357;BME280;31092;51.924;21.448;2024-03-02T03:46:55;99177.91;;;4.64;100.00
45357;BME280;31092;51.924;21.448;2024-03-02T03:49:20;99195.41;;;4.84;100.00
45357;BME280;31092;51.924;21.448;2024-03-02T03:51:46;99171.97;;;4.70;100.00
45357;BME280;31092;51.924;21.448;2024-03-02T03:54:11;99107.31;;;4.32;100.00
45357;BME280;31092;51.924;21.448;2024-03-02T03:56:37;99215.34;;;4.98;100.00
45357;BME280;31092;51.924;21.448;2024-03-02T03:59:03;99120.25;;;4.45;100.00
45357;BME280;31092;51.924;21.448;2024-03-02T04:01:30;99106.84;;;4.37;100.00
45357;BME280;31092;51.924;21.448;2024-03-02T04:03:55;99056.28;;;4.09;100.00
45357;BME280;31092;51.924;21.448;2024-03-02T04:06:21;99102.66;;;4.52;100.00
45357;BME280;31092;51.924;21.448;2024-03-02T04:08:46;99124.41;;;4.65;100.00
45357;BME280;31092;51.924;21.448;2024-03-02T04:11:11;99102.78;;;4.50;100.00
45357;BME280;31092;51.924;21.448;2024-03-02T04:13:37;99093.94;;;4.50;100.00
45357;BME280;31092;51.924;21.448;2024-03-02T04:16:03;99114.91;;;4.63;100.00
45357;BME280;31092;51.924;21.448;2024-03-02T04:18:30;99103.38;;;4.62;100.00
45357;BME280;31092;51.924;21.448;2024-03-02T04:20:57;99114.13;;;4.70;100.00
45357;BME280;31092;51.924;21.448;2024-03-02T04:23:24;99105.19;;;4.62;100.00
45357;BME280;31092;51.924;21.448;2024-03-02T04:25:50;99168.31;;;4.97;100.00
45357;BME280;31092;51.924;21.448;2024-03-02T04:28:15;99189.09;;;5.11;100.00
45357;BME280;31092;51.924;21.448;2024-03-02T04:30:41;99120.72;;;4.84;100.00
45357;BME280;31092;51.924;21.448;2024-03-02T04:33:07;99143.97;;;5.00;100.00
45357;BME280;31092;51.924;21.448;2024-03-02T04:35:35;99123.00;;;4.79;100.00
45357;BME280;31092;51.924;21.448;2024-03-02T04:38:01;99164.06;;;5.12;100.00
45357;BME280;31092;51.924;21.448;2024-03-02T04:40:26;99158.53;;;5.06;100.00
45357;BME280;31092;51.924;21.448;2024-03-02T04:42:52;99154.41;;;5.11;100.00
45357;BME280;31092;51.924;21.448;2024-03-02T04:45:17;99172.28;;;5.19;100.00
45357;BME280;31092;51.924;21.448;2024-03-02T04:47:43;99165.09;;;5.19;100.00
45357;BME280;31092;51.924;21.448;2024-03-02T04:50:08;99166.50;;;5.23;100.00
45357;BME280;31092;51.924;21.448;2024-03-02T04:52:34;99084.47;;;4.73;100.00
45357;BME280;31092;51.924;21.448;2024-03-02T04:54:59;99131.16;;;5.03;100.00
45357;BME280;31092;51.924;21.448;2024-03-02T04:57:43;99157.97;;;5.20;100.00
45357;BME280;31092;51.924;21.448;2024-03-02T05:00:09;99142.72;;;5.12;100.00
45357;BME280;31092;51.924;21.448;2024-03-02T05:02:35;99074.94;;;4.71;100.00
45357;BME280;31092;51.924;21.448;2024-03-02T05:05:01;99066.94;;;4.71;100.00
45357;BME280;31092;51.924;21.448;2024-03-02T05:07:27;99134.88;;;5.11;100.00
45357;BME280;31092;51.924;21.448;2024-03-02T05:09:53;99147.91;;;5.14;100.00
45357;BME280;31092;51.924;21.448;2024-03-02T05:12:18;99162.34;;;5.29;100.00
45357;BME280;31092;51.924;21.448;2024-03-02T05:15:02;99160.69;;;5.28;100.00
45357;BME280;31092;51.924;21.448;2024-03-02T05:17:28;99088.53;;;4.86;100.00
45357;BME280;31092;51.924;21.448;2024-03-02T05:19:53;99163.81;;;5.23;100.00
45357;BME280;31092;51.924;21.448;2024-03-02T05:22:19;99104.22;;;4.89;100.00
45357;BME280;31092;51.924;21.448;2024-03-02T05:24:44;99170.03;;;5.32;100.00
45357;BME280;31092;51.924;21.448;2024-03-02T05:27:10;99176.59;;;5.38;100.00
45357;BME280;31092;51.924;21.448;2024-03-02T05:29:35;99168.38;;;5.31;100.00
45357;BME280;31092;51.924;21.448;2024-03-02T05:32:01;99182.59;;;5.40;100.00
45357;BME280;31092;51.924;21.448;2024-03-02T05:34:27;99173.53;;;5.33;100.00
45357;BME280;31092;51.924;21.448;2024-03-02T05:36:52;99181.09;;;5.37;100.00
45357;BME280;31092;51.924;21.448;2024-03-02T05:39:18;99179.72;;;5.33;100.00
45357;BME280;31092;51.924;21.448;2024-03-02T05:41:44;99120.28;;;4.97;100.00
45357;BME280;31092;51.924;21.448;2024-03-02T05:44:09;99169.72;;;5.35;100.00
45357;BME280;31092;51.924;21.448;2024-03-02T05:46:34;99134.56;;;5.14;100.00
45357;BME280;31092;51.924;21.448;2024-03-02T05:49:03;99190.66;;;5.48;100.00
45357;BME280;31092;51.924;21.448;2024-03-02T05:51:28;99197.03;;;5.55;100.00
45357;BME280;31092;51.924;21.448;2024-03-02T05:53:54;99176.44;;;5.47;100.00
45357;BME280;31092;51.924;21.448;2024-03-02T05:56:19;99092.59;;;4.98;100.00
45357;BME280;31092;51.924;21.448;2024-03-02T05:58:45;99159.72;;;5.37;100.00
45357;BME280;31092;51.924;21.448;2024-03-02T06:01:26;99208.09;;;5.68;100.00
45357;BME280;31092;51.924;21.448;2024-03-02T06:03:56;99182.81;;;5.55;100.00
45357;BME280;31092;51.924;21.448;2024-03-02T06:06:29;99200.59;;;5.72;100.00
45357;BME280;31092;51.924;21.448;2024-03-02T06:09:00;99075.88;;;4.88;100.00
45357;BME280;31092;51.924;21.448;2024-03-02T06:11:25;99200.16;;;5.76;100.00
45357;BME280;31092;51.924;21.448;2024-03-02T06:13:51;99193.59;;;5.71;100.00
45357;BME280;31092;51.924;21.448;2024-03-02T06:16:16;99097.34;;;5.12;100.00
45357;BME280;31092;51.924;21.448;2024-03-02T06:18:42;99215.84;;;5.80;100.00
45357;BME280;31092;51.924;21.448;2024-03-02T06:21:07;99188.78;;;5.74;100.00
45357;BME280;31092;51.924;21.448;2024-03-02T06:23:33;99112.63;;;5.28;100.00
45357;BME280;31092;51.924;21.448;2024-03-02T06:26:00;99141.91;;;5.46;100.00
45357;BME280;31092;51.924;21.448;2024-03-02T06:28:25;99168.22;;;5.67;100.00
45357;BME280;31092;51.924;21.448;2024-03-02T06:30:51;99173.56;;;5.75;100.00
45357;BME280;31092;51.924;21.448;2024-03-02T06:33:17;99090.75;;;5.24;100.00
45357;BME280;31092;51.924;21.448;2024-03-02T06:35:42;99150.00;;;5.62;100.00
45357;BME280;31092;51.924;21.448;2024-03-02T06:38:08;99128.75;;;5.52;100.00
45357;BME280;31092;51.924;21.448;2024-03-02T06:40:33;99116.03;;;5.46;100.00
45357;BME280;31092;51.924;21.448;2024-03-02T06:42:59;99118.06;;;5.52;100.00
45357;BME280;31092;51.924;21.448;2024-03-02T06:45:24;99202.47;;;6.06;100.00
45357;BME280;31092;51.924;21.448;2024-03-02T06:47:50;99120.56;;;5.54;100.00
45357;BME280;31092;51.924;21.448;2024-03-02T06:50:15;99209.16;;;6.10;100.00
45357;BME280;31092;51.924;21.448;2024-03-02T06:52:41;99127.44;;;5.65;100.00
45357;BME280;31092;51.924;21.448;2024-03-02T06:55:07;99177.38;;;5.98;100.00
45357;BME280;31092;51.924;21.448;2024-03-02T06:57:33;99192.94;;;6.11;100.00
45357;BME280;31092;51.924;21.448;2024-03-02T06:59:58;99198.16;;;6.21;100.00
45357;BME280;31092;51.924;21.448;2024-03-02T07:02:27;99128.84;;;5.77;100.00
45357;BME280;31092;51.924;21.448;2024-03-02T07:04:55;99118.47;;;5.74;100.00
45357;BME280;31092;51.924;21.448;2024-03-02T07:07:21;99183.59;;;6.15;100.00
45357;BME280;31092;51.924;21.448;2024-03-02T07:09:47;99195.34;;;6.31;100.00
45357;BME280;31092;51.924;21.448;2024-03-02T07:12:13;99116.84;;;5.81;100.00
45357;BME280;31092;51.924;21.448;2024-03-02T07:14:39;99144.13;;;6.01;100.00
45357;BME280;31092;51.924;21.448;2024-03-02T07:17:23;99178.09;;;6.25;100.00
45357;BME280;31092;51.924;21.448;2024-03-02T07:19:49;99213.75;;;6.42;100.00
45357;BME280;31092;51.924;21.448;2024-03-02T07:22:14;99124.72;;;5.91;100.00
45357;BME280;31092;51.924;21.448;2024-03-02T07:24:43;99222.44;;;6.44;100.00
45357;BME280;31092;51.924;21.448;2024-03-02T07:27:09;99132.91;;;5.97;100.00
45357;BME280;31092;51.924;21.448;2024-03-02T07:29:36;99170.06;;;6.17;100.00
45357;BME280;31092;51.924;21.448;2024-03-02T07:32:01;99203.03;;;6.34;100.00
45357;BME280;31092;51.924;21.448;2024-03-02T07:34:27;99203.03;;;6.34;100.00
45357;BME280;31092;51.924;21.448;2024-03-02T07:36:53;99227.28;;;6.40;100.00
45357;BME280;31092;51.924;21.448;2024-03-02T07:39:21;99111.97;;;5.76;100.00
45357;BME280;31092;51.924;21.448;2024-03-02T07:41:47;99227.13;;;6.50;100.00
45357;BME280;31092;51.924;21.448;2024-03-02T07:44:13;99163.72;;;6.18;100.00
45357;BME280;31092;51.924;21.448;2024-03-02T07:46:43;99237.84;;;6.58;100.00
45357;BME280;31092;51.924;21.448;2024-03-02T07:49:09;99208.91;;;6.37;100.00
45357;BME280;31092;51.924;21.448;2024-03-02T07:51:35;99162.19;;;6.15;100.00
45357;BME280;31092;51.924;21.448;2024-03-02T07:54:01;99159.19;;;6.18;100.00
45357;BME280;31092;51.924;21.448;2024-03-02T07:56:27;99154.69;;;6.11;100.00
45357;BME280;31092;51.924;21.448;2024-03-02T07:58:53;99170.75;;;6.27;100.00
45357;BME280;31092;51.924;21.448;2024-03-02T08:01:19;99243.91;;;6.77;100.00
45357;BME280;31092;51.924;21.448;2024-03-02T08:03:45;99208.41;;;6.50;100.00
45357;BME280;31092;51.924;21.448;2024-03-02T08:06:16;99169.06;;;6.26;100.00
45357;BME280;31092;51.924;21.448;2024-03-02T08:08:41;99163.56;;;6.28;100.00
45357;BME280;31092;51.924;21.448;2024-03-02T08:11:07;99177.31;;;6.41;100.00
45357;BME280;31092;51.924;21.448;2024-03-02T08:13:33;99152.88;;;6.36;100.00
45357;BME280;31092;51.924;21.448;2024-03-02T08:15:58;99214.63;;;6.75;100.00
45357;BME280;31092;51.924;21.448;2024-03-02T08:18:24;99217.47;;;6.82;100.00
45357;BME280;31092;51.924;21.448;2024-03-02T08:20:50;99222.47;;;6.85;100.00
45357;BME280;31092;51.924;21.448;2024-03-02T08:23:17;99242.91;;;6.94;100.00
45357;BME280;31092;51.924;21.448;2024-03-02T08:25:42;99184.69;;;6.63;100.00
45357;BME280;31092;51.924;21.448;2024-03-02T08:28:08;99192.69;;;6.63;100.00
45357;BME280;31092;51.924;21.448;2024-03-02T08:30:33;99246.75;;;7.00;100.00
45357;BME280;31092;51.924;21.448;2024-03-02T08:32:59;99242.06;;;7.02;100.00
45357;BME280;31092;51.924;21.448;2024-03-02T08:35:25;99171.31;;;6.63;100.00
45357;BME280;31092;51.924;21.448;2024-03-02T08:37:50;99228.00;;;7.00;100.00
45357;BME280;31092;51.924;21.448;2024-03-02T08:40:16;99225.50;;;6.98;100.00
45357;BME280;31092;51.924;21.448;2024-03-02T08:42:41;99158.25;;;6.60;100.00
45357;BME280;31092;51.924;21.448;2024-03-02T08:45:07;99232.03;;;6.95;100.00
45357;BME280;31092;51.924;21.448;2024-03-02T08:47:33;99261.47;;;7.12;100.00
45357;BME280;31092;51.924;21.448;2024-03-02T08:49:59;99213.28;;;6.79;100.00
45357;BME280;31092;51.924;21.448;2024-03-02T08:52:25;99286.91;;;7.24;100.00
45357;BME280;31092;51.924;21.448;2024-03-02T08:54:51;99223.00;;;6.88;100.00
45357;BME280;31092;51.924;21.448;2024-03-02T08:57:16;99269.66;;;7.18;100.00
45357;BME280;31092;51.924;21.448;2024-03-02T08:59:42;99207.09;;;6.79;100.00
45357;BME280;31092;51.924;21.448;2024-03-02T09:02:07;99199.56;;;6.82;100.00
45357;BME280;31092;51.924;21.448;2024-03-02T09:04:33;99266.84;;;7.36;100.00
45357;BME280;31092;51.924;21.448;2024-03-02T09:06:58;99195.72;;;7.01;100.00
45357;BME280;31092;51.924;21.448;2024-03-02T09:09:24;99278.16;;;7.63;100.00
45357;BME280;31092;51.924;21.448;2024-03-02T09:11:49;99212.41;;;7.28;100.00
45357;BME280;31092;51.924;21.448;2024-03-02T09:14:15;99186.16;;;7.15;100.00
45357;BME280;31092;51.924;21.448;2024-03-02T09:16:40;99274.09;;;7.83;100.00
45357;BME280;31092;51.924;21.448;2024-03-02T09:19:06;99195.81;;;7.49;100.00
45357;BME280;31092;51.924;21.448;2024-03-02T09:21:31;99266.47;;;8.03;100.00
45357;BME280;31092;51.924;21.448;2024-03-02T09:23:57;99264.47;;;8.05;100.00
45357;BME280;31092;51.924;21.448;2024-03-02T09:26:22;99265.34;;;7.98;100.00
45357;BME280;31092;51.924;21.448;2024-03-02T09:28:50;99245.25;;;7.85;100.00
45357;BME280;31092;51.924;21.448;2024-03-02T09:31:15;99216.19;;;7.66;100.00
45357;BME280;31092;51.924;21.448;2024-03-02T09:33:41;99216.19;;;7.66;100.00
45357;BME280;31092;51.924;21.448;2024-03-02T09:36:17;99283.06;;;8.07;100.00
45357;BME280;31092;51.924;21.448;2024-03-02T09:38:42;99200.44;;;7.63;100.00
45357;BME280;31092;51.924;21.448;2024-03-02T09:41:08;99258.19;;;7.90;100.00
45357;BME280;31092;51.924;21.448;2024-03-02T09:43:34;99225.03;;;7.75;100.00
45357;BME280;31092;51.924;21.448;2024-03-02T09:46:00;99298.78;;;8.18;100.00
45357;BME280;31092;51.924;21.448;2024-03-02T09:48:25;99216.53;;;7.63;100.00
45357;BME280;31092;51.924;21.448;2024-03-02T09:50:51;99277.59;;;7.92;100.00
45357;BME280;31092;51.924;21.448;2024-03-02T09:53:17;99276.91;;;7.98;100.00
45357;BME280;31092;51.924;21.448;2024-03-02T09:55:46;99242.25;;;7.88;100.00
45357;BME280;31092;51.924;21.448;2024-03-02T09:58:12;99230.19;;;7.84;100.00
45357;BME280;31092;51.924;21.448;2024-03-02T10:00:37;99259.75;;;8.07;100.00
45357;BME280;31092;51.924;21.448;2024-03-02T10:03:03;99210.25;;;7.87;100.00
45357;BME280;31092;51.924;21.448;2024-03-02T10:05:30;99260.13;;;8.04;100.00
45357;BME280;31092;51.924;21.448;2024-03-02T10:08:02;99282.81;;;8.33;100.00
45357;BME280;31092;51.924;21.448;2024-03-02T10:10:41;99308.25;;;8.45;100.00
45357;BME280;31092;51.924;21.448;2024-03-02T10:13:11;99275.63;;;8.25;100.00
45357;BME280;31092;51.924;21.448;2024-03-02T10:15:38;99276.44;;;8.34;100.00
45357;BME280;31092;51.924;21.448;2024-03-02T10:18:08;99277.44;;;8.33;100.00
45357;BME280;31092;51.924;21.448;2024-03-02T10:20:34;99289.97;;;8.49;100.00
45357;BME280;31092;51.924;21.448;2024-03-02T10:23:15;99314.41;;;8.62;100.00
45357;BME280;31092;51.924;21.448;2024-03-02T10:25:42;99306.00;;;8.65;100.00
45357;BME280;31092;51.924;21.448;2024-03-02T10:28:07;99305.47;;;8.70;100.00
45357;BME280;31092;51.924;21.448;2024-03-02T10:30:33;99237.72;;;8.28;100.00
45357;BME280;31092;51.924;21.448;2024-03-02T10:33:00;99242.38;;;8.34;100.00
45357;BME280;31092;51.924;21.448;2024-03-02T10:35:26;99305.41;;;8.78;100.00
45357;BME280;31092;51.924;21.448;2024-03-02T10:37:52;99252.53;;;8.55;100.00
45357;BME280;31092;51.924;21.448;2024-03-02T10:40:21;99304.84;;;8.91;100.00
45357;BME280;31092;51.924;21.448;2024-03-02T10:42:47;99304.75;;;8.99;100.00
45357;BME280;31092;51.924;21.448;2024-03-02T10:45:15;99248.13;;;8.62;100.00
45357;BME280;31092;51.924;21.448;2024-03-02T10:47:41;99315.16;;;9.02;100.00
45357;BME280;31092;51.924;21.448;2024-03-02T10:50:07;99214.53;;;8.35;100.00
45357;BME280;31092;51.924;21.448;2024-03-02T10:52:36;99328.03;;;9.06;100.00
45357;BME280;31092;51.924;21.448;2024-03-02T10:55:02;99251.50;;;8.56;100.00
45357;BME280;31092;51.924;21.448;2024-03-02T10:57:50;99249.50;;;8.58;100.00
45357;BME280;31092;51.924;21.448;2024-03-02T11:00:18;99323.41;;;9.00;100.00
45357;BME280;31092;51.924;21.448;2024-03-02T11:02:51;99338.97;;;9.05;100.00
45357;BME280;31092;51.924;21.448;2024-03-02T11:05:43;99247.78;;;8.66;100.00
45357;BME280;31092;51.924;21.448;2024-03-02T11:08:08;99318.56;;;9.19;100.00
45357;BME280;31092;51.924;21.448;2024-03-02T11:10:41;99296.16;;;9.03;100.00
45357;BME280;31092;51.924;21.448;2024-03-02T11:13:12;99240.84;;;8.71;100.00
45357;BME280;31092;51.924;21.448;2024-03-02T11:15:39;99274.75;;;8.95;100.00
45357;BME280;31092;51.924;21.448;2024-03-02T11:18:06;99314.91;;;9.34;100.00
45357;BME280;31092;51.924;21.448;2024-03-02T11:20:39;99305.00;;;9.35;100.00
45357;BME280;31092;51.924;21.448;2024-03-02T11:23:06;99248.13;;;9.08;100.00
45357;BME280;31092;51.924;21.448;2024-03-02T11:25:32;99272.22;;;9.17;100.00
45357;BME280;31092;51.924;21.448;2024-03-02T11:28:05;99237.63;;;8.99;100.00
45357;BME280;31092;51.924;21.448;2024-03-02T11:32:57;99260.84;;;8.92;100.00
45357;BME280;31092;51.924;21.448;2024-03-02T11:35:27;99293.72;;;9.17;100.00
45357;BME280;31092;51.924;21.448;2024-03-02T11:37:55;99269.25;;;9.11;100.00
45357;BME280;31092;51.924;21.448;2024-03-02T11:40:27;99340.50;;;9.68;100.00
45357;BME280;31092;51.924;21.448;2024-03-02T11:42:53;99340.97;;;9.72;100.00
45357;BME280;31092;51.924;21.448;2024-03-02T11:45:22;99326.31;;;9.74;100.00
45357;BME280;31092;51.924;21.448;2024-03-02T11:47:54;99343.31;;;9.90;100.00
45357;BME280;31092;51.924;21.448;2024-03-02T11:50:31;99278.66;;;9.53;100.00
45357;BME280;31092;51.924;21.448;2024-03-02T11:52:58;99314.81;;;9.66;100.00
45357;BME280;31092;51.924;21.448;2024-03-02T11:55:25;99354.56;;;9.93;100.00
45357;BME280;31092;51.924;21.448;2024-03-02T11:57:54;99370.72;;;10.08;100.00
45357;BME280;31092;51.924;21.448;2024-03-02T12:00:20;99355.13;;;10.03;100.00
45357;BME280;31092;51.924;21.448;2024-03-02T12:02:47;99352.44;;;10.03;100.00
45357;BME280;31092;51.924;21.448;2024-03-02T12:05:24;99297.28;;;9.70;100.00
45357;BME280;31092;51.924;21.448;2024-03-02T12:07:56;99383.97;;;10.10;100.00
45357;BME280;31092;51.924;21.448;2024-03-02T12:10:21;99367.81;;;9.95;100.00
45357;BME280;31092;51.924;21.448;2024-03-02T12:12:47;99303.03;;;9.67;100.00
45357;BME280;31092;51.924;21.448;2024-03-02T12:15:13;99320.66;;;9.69;100.00
45357;BME280;31092;51.924;21.448;2024-03-02T12:17:38;99319.34;;;9.65;100.00
45357;BME280;31092;51.924;21.448;2024-03-02T12:20:07;99376.69;;;9.80;100.00
45357;BME280;31092;51.924;21.448;2024-03-02T12:22:32;99293.38;;;9.20;100.00
45357;BME280;31092;51.924;21.448;2024-03-02T12:24:58;99344.50;;;9.49;100.00
45357;BME280;31092;51.924;21.448;2024-03-02T12:27:23;99393.72;;;9.73;100.00
45357;BME280;31092;51.924;21.448;2024-03-02T12:29:49;99318.56;;;9.19;100.00
45357;BME280;31092;51.924;21.448;2024-03-02T12:32:15;99330.50;;;9.16;100.00
45357;BME280;31092;51.924;21.448;2024-03-02T12:34:41;99360.59;;;9.34;100.00
45357;BME280;31092;51.924;21.448;2024-03-02T12:37:06;99336.69;;;9.17;100.00
45357;BME280;31092;51.924;21.448;2024-03-02T12:39:32;99354.47;;;9.26;100.00
45357;BME280;31092;51.924;21.448;2024-03-02T12:41:58;99341.06;;;9.18;100.00
45357;BME280;31092;51.924;21.448;2024-03-02T12:44:23;99417.03;;;9.57;100.00
45357;BME280;31092;51.924;21.448;2024-03-02T12:46:49;99401.81;;;9.50;100.00
45357;BME280;31092;51.924;21.448;2024-03-02T12:49:15;99347.81;;;9.14;100.00
45357;BME280;31092;51.924;21.448;2024-03-02T12:51:41;99410.59;;;9.44;100.00